sensor_id;sensor_type;location;lat;lon;timestamp;temperature;humidity
74901;DHT22;63461;51.416;6.758;2024-03-08T00:00:00;5.90;99.90
74901;DHT22;63461;51.416;6.758;2024-03-08T00:02:38;5.80;99.90
74901;DHT22;63461;51.416;6.758;2024-03-08T00:05:05;5.80;99.90
74901;DHT22;63461;51.416;6.758;2024-03-08T00:07:31;5.80;99.90
74901;DHT22;63461;51.416;6.758;2024-03-08T00:09:58;5.80;99.90
74901;DHT22;63461;51.416;6.758;2024-03-08T00:12:24;5.80;99.90
74901;DHT22;63461;51.416;6.758;2024-03-08T00:14:50;5.80;99.90
74901;DHT22;63461;51.416;6.758;2024-03-08T00:17:16;5.70;99.90
74901;DHT22;63461;51.416;6.758;2024-03-08T00:19:42;5.70;99.90
74901;DHT22;63461;51.416;6.758;2024-03-08T00:22:07;5.70;99.90
74901;DHT22;63461;51.416;6.758;2024-03-08T00:24:33;5.70;99.90
74901;DHT22;63461;51.416;6.758;2024-03-08T00:26:59;5.70;99.90
74901;DHT22;63461;51.416;6.758;2024-03-08T00:29:25;5.60;99.90
74901;DHT22;63461;51.416;6.758;2024-03-08T00:31:50;5.60;99.90
74901;DHT22;63461;51.416;6.758;2024-03-08T00:34:16;5.60;99.90
74901;DHT22;63461;51.416;6.758;2024-03-08T00:36:42;5.70;99.90
74901;DHT22;63461;51.416;6.758;2024-03-08T00:39:08;5.60;99.90
74901;DHT22;63461;51.416;6.758;2024-03-08T00:41:33;5.60;99.90
74901;DHT22;63461;51.416;6.758;2024-03-08T00:43:59;5.60;99.90
74901;DHT22;63461;51.416;6.758;2024-03-08T00:46:25;5.60;99.90
74901;DHT22;63461;51.416;6.758;2024-03-08T00:48:53;5.50;99.90
74901;DHT22;63461;51.416;6.758;2024-03-08T00:51:19;5.60;99.90
74901;DHT22;63461;51.416;6.758;2024-03-08T00:53:44;5.50;99.90
74901;DHT22;63461;51.416;6.758;2024-03-08T00:56:10;5.50;99.90
74901;DHT22;63461;51.416;6.758;2024-03-08T00:58:38;5.50;99.90
74901;DHT22;63461;51.416;6.758;2024-03-08T01:01:04;5.50;99.90
74901;DHT22;63461;51.416;6.758;2024-03-08T01:03:31;5.50;99.90
74901;DHT22;63461;51.416;6.758;2024-03-08T01:06:00;5.40;99.90
74901;DHT22;63461;51.416;6.758;2024-03-08T01:08:28;5.40;99.90
74901;DHT22;63461;51.416;6.758;2024-03-08T01:10:54;5.40;99.90
74901;DHT22;63461;51.416;6.758;2024-03-08T01:13:20;5.30;99.90
74901;DHT22;63461;51.416;6.758;2024-03-08T01:15:47;5.30;99.90
74901;DHT22;63461;51.416;6.758;2024-03-08T01:18:12;5.30;99.90
74901;DHT22;63461;51.416;6.758;2024-03-08T01:20:38;5.30;99.90
74901;DHT22;63461;51.416;6.758;2024-03-08T01:23:05;5.20;99.90
74901;DHT22;63461;51.416;6.758;2024-03-08T01:25:33;5.30;99.90
74901;DHT22;63461;51.416;6.758;2024-03-08T01:27:59;5.30;99.90
74901;DHT22;63461;51.416;6.758;2024-03-08T01:30:25;5.20;99.90
74901;DHT22;63461;51.416;6.758;2024-03-08T01:32:51;5.20;99.90
74901;DHT22;63461;51.416;6.758;2024-03-08T01:35:17;5.20;99.90
74901;DHT22;63461;51.416;6.758;2024-03-08T01:37:43;5.30;99.90
74901;DHT22;63461;51.416;6.758;2024-03-08T01:40:09;5.20;99.90
74901;DHT22;63461;51.416;6.758;2024-03-08T01:42:35;5.20;99.90
74901;DHT22;63461;51.416;6.758;2024-03-08T01:45:06;5.10;99.90
74901;DHT22;63461;51.416;6.758;2024-03-08T01:47:32;5.10;99.90
74901;DHT22;63461;51.416;6.758;2024-03-08T01:49:59;5.10;99.90
74901;DHT22;63461;51.416;6.758;2024-03-08T01:52:28;5.10;99.90
74901;DHT22;63461;51.416;6.758;2024-03-08T01:54:54;5.00;99.90
74901;DHT22;63461;51.416;6.758;2024-03-08T01:57:21;5.10;99.90
74901;DHT22;63461;51.416;6.758;2024-03-08T01:59:47;5.10;99.90
74901;DHT22;63461;51.416;6.758;2024-03-08T02:02:15;5.10;99.90
74901;DHT22;63461;51.416;6.758;2024-03-08T02:04:42;5.00;99.90
74901;DHT22;63461;51.416;6.758;2024-03-08T02:07:08;5.10;99.90
74901;DHT22;63461;51.416;6.758;2024-03-08T02:09:34;5.00;99.90
74901;DHT22;63461;51.416;6.758;2024-03-08T02:11:59;5.00;99.90
74901;DHT22;63461;51.416;6.758;2024-03-08T02:14:31;5.00;99.90
74901;DHT22;63461;51.416;6.758;2024-03-08T02:17:01;5.00;99.90
74901;DHT22;63461;51.416;6.758;2024-03-08T02:19:26;5.00;99.90
74901;DHT22;63461;51.416;6.758;2024-03-08T02:21:53;5.00;99.90
74901;DHT22;63461;51.416;6.758;2024-03-08T02:24:19;4.90;99.90
74901;DHT22;63461;51.416;6.758;2024-03-08T02:26:45;5.00;99.90
74901;DHT22;63461;51.416;6.758;2024-03-08T02:29:11;4.90;99.90
74901;DHT22;63461;51.416;6.758;2024-03-08T02:31:38;4.90;99.90
74901;DHT22;63461;51.416;6.758;2024-03-08T02:34:05;4.90;99.90
74901;DHT22;63461;51.416;6.758;2024-03-08T02:36:30;4.90;99.90
74901;DHT22;63461;51.416;6.758;2024-03-08T02:39:02;4.90;99.90
74901;DHT22;63461;51.416;6.758;2024-03-08T02:41:28;4.80;99.90
74901;DHT22;63461;51.416;6.758;2024-03-08T02:43:54;4.80;99.90
74901;DHT22;63461;51.416;6.758;2024-03-08T02:46:20;4.80;99.90
74901;DHT22;63461;51.416;6.758;2024-03-08T02:48:46;4.80;99.90
74901;DHT22;63461;51.416;6.758;2024-03-08T02:51:12;4.80;99.90
74901;DHT22;63461;51.416;6.758;2024-03-08T02:53:39;4.80;99.90
74901;DHT22;63461;51.416;6.758;2024-03-08T02:56:05;4.80;99.90
74901;DHT22;63461;51.416;6.758;2024-03-08T02:58:34;4.70;99.90
74901;DHT22;63461;51.416;6.758;2024-03-08T03:01:00;4.80;99.90
74901;DHT22;63461;51.416;6.758;2024-03-08T03:03:25;4.70;99.90
74901;DHT22;63461;51.416;6.758;2024-03-08T03:05:52;4.70;99.90
74901;DHT22;63461;51.416;6.758;2024-03-08T03:08:21;4.70;99.90
74901;DHT22;63461;51.416;6.758;2024-03-08T03:10:47;4.70;99.90
74901;DHT22;63461;51.416;6.758;2024-03-08T03:13:13;4.70;99.90
74901;DHT22;63461;51.416;6.758;2024-03-08T03:15:40;4.70;99.90
74901;DHT22;63461;51.416;6.758;2024-03-08T03:18:08;4.60;99.90
74901;DHT22;63461;51.416;6.758;2024-03-08T03:20:34;4.50;99.90
74901;DHT22;63461;51.416;6.758;2024-03-08T03:23:06;4.60;99.90
74901;DHT22;63461;51.416;6.758;2024-03-08T03:25:34;4.60;99.90
74901;DHT22;63461;51.416;6.758;2024-03-08T03:28:01;4.60;99.90
74901;DHT22;63461;51.416;6.758;2024-03-08T03:30:27;4.60;99.90
74901;DHT22;63461;51.416;6.758;2024-03-08T03:32:56;4.50;99.90
74901;DHT22;63461;51.416;6.758;2024-03-08T03:35:26;4.50;99.90
74901;DHT22;63461;51.416;6.758;2024-03-08T03:37:52;4.50;99.90
74901;DHT22;63461;51.416;6.758;2024-03-08T03:40:33;4.50;99.90
74901;DHT22;63461;51.416;6.758;2024-03-08T03:43:00;4.50;99.90
74901;DHT22;63461;51.416;6.758;2024-03-08T03:45:27;4.40;99.90
74901;DHT22;63461;51.416;6.758;2024-03-08T03:47:53;4.40;99.90
74901;DHT22;63461;51.416;6.758;2024-03-08T03:50:19;4.50;99.90
74901;DHT22;63461;51.416;6.758;2024-03-08T03:52:46;4.50;99.90
74901;DHT22;63461;51.416;6.758;2024-03-08T03:55:12;4.40;99.90
74901;DHT22;63461;51.416;6.758;2024-03-08T03:57:39;4.40;99.90
74901;DHT22;63461;51.416;6.758;2024-03-08T04:00:06;4.40;99.90
74901;DHT22;63461;51.416;6.758;2024-03-08T04:02:38;4.40;99.90
74901;DHT22;63461;51.416;6.758;2024-03-08T04:05:06;4.40;99.90
74901;DHT22;63461;51.416;6.758;2024-03-08T04:07:32;4.30;99.90
74901;DHT22;63461;51.416;6.758;2024-03-08T04:09:58;4.40;99.90
74901;DHT22;63461;51.416;6.758;2024-03-08T04:12:23;4.30;99.90
74901;DHT22;63461;51.416;6.758;2024-03-08T04:14:49;4.20;99.90
74901;DHT22;63461;51.416;6.758;2024-03-08T04:17:15;4.30;99.90
74901;DHT22;63461;51.416;6.758;2024-03-08T04:19:42;4.20;99.90
74901;DHT22;63461;51.416;6.758;2024-03-08T04:22:08;4.30;99.90
74901;DHT22;63461;51.416;6.758;2024-03-08T04:24:34;4.30;99.90
74901;DHT22;63461;51.416;6.758;2024-03-08T04:27:00;4.30;99.90
74901;DHT22;63461;51.416;6.758;2024-03-08T04:29:25;4.30;99.90
74901;DHT22;63461;51.416;6.758;2024-03-08T04:31:52;4.20;99.90
74901;DHT22;63461;51.416;6.758;2024-03-08T04:34:23;4.20;99.90
74901;DHT22;63461;51.416;6.758;2024-03-08T04:36:49;4.10;99.90
74901;DHT22;63461;51.416;6.758;2024-03-08T04:39:15;4.20;99.90
74901;DHT22;63461;51.416;6.758;2024-03-08T04:41:41;4.10;99.90
74901;DHT22;63461;51.416;6.758;2024-03-08T04:44:10;4.10;99.90
74901;DHT22;63461;51.416;6.758;2024-03-08T04:46:36;4.10;99.90
74901;DHT22;63461;51.416;6.758;2024-03-08T04:49:02;4.10;99.90
74901;DHT22;63461;51.416;6.758;2024-03-08T04:51:28;4.10;99.90
74901;DHT22;63461;51.416;6.758;2024-03-08T04:53:53;4.00;99.90
74901;DHT22;63461;51.416;6.758;2024-03-08T04:56:19;4.00;99.90
74901;DHT22;63461;51.416;6.758;2024-03-08T04:58:45;4.00;99.90
74901;DHT22;63461;51.416;6.758;2024-03-08T05:01:15;4.10;99.90
74901;DHT22;63461;51.416;6.758;2024-03-08T05:03:41;4.00;99.90
74901;DHT22;63461;51.416;6.758;2024-03-08T05:06:06;4.00;99.90
74901;DHT22;63461;51.416;6.758;2024-03-08T05:08:32;4.00;99.90
74901;DHT22;63461;51.416;6.758;2024-03-08T05:10:58;4.00;99.90
74901;DHT22;63461;51.416;6.758;2024-03-08T05:13:26;3.90;99.90
74901;DHT22;63461;51.416;6.758;2024-03-08T05:15:52;3.90;99.90
74901;DHT22;63461;51.416;6.758;2024-03-08T05:18:18;4.00;99.90
74901;DHT22;63461;51.416;6.758;2024-03-08T05:20:44;3.90;99.90
74901;DHT22;63461;51.416;6.758;2024-03-08T05:23:10;4.00;99.90
74901;DHT22;63461;51.416;6.758;2024-03-08T05:25:36;3.90;99.90
74901;DHT22;63461;51.416;6.758;2024-03-08T05:28:02;3.90;99.90
74901;DHT22;63461;51.416;6.758;2024-03-08T05:30:29;3.90;99.90
74901;DHT22;63461;51.416;6.758;2024-03-08T05:32:55;3.90;99.90
74901;DHT22;63461;51.416;6.758;2024-03-08T05:35:22;3.80;99.90
74901;DHT22;63461;51.416;6.758;2024-03-08T05:37:48;3.80;99.90
74901;DHT22;63461;51.416;6.758;2024-03-08T05:40:14;3.90;99.90
74901;DHT22;63461;51.416;6.758;2024-03-08T05:42:40;3.80;99.90
74901;DHT22;63461;51.416;6.758;2024-03-08T05:45:06;3.80;99.90
74901;DHT22;63461;51.416;6.758;2024-03-08T05:47:32;3.70;99.90
74901;DHT22;63461;51.416;6.758;2024-03-08T05:49:59;3.70;99.90
74901;DHT22;63461;51.416;6.758;2024-03-08T05:52:25;3.80;99.90
74901;DHT22;63461;51.416;6.758;2024-03-08T05:54:51;3.80;99.90
74901;DHT22;63461;51.416;6.758;2024-03-08T05:57:17;3.80;99.90
74901;DHT22;63461;51.416;6.758;2024-03-08T05:59:43;3.80;99.90
74901;DHT22;63461;51.416;6.758;2024-03-08T06:02:09;3.80;99.90
74901;DHT22;63461;51.416;6.758;2024-03-08T06:04:35;3.70;99.90
74901;DHT22;63461;51.416;6.758;2024-03-08T06:07:00;3.80;99.90
74901;DHT22;63461;51.416;6.758;2024-03-08T06:09:29;3.80;99.90
74901;DHT22;63461;51.416;6.758;2024-03-08T06:11:55;3.80;99.90
74901;DHT22;63461;51.416;6.758;2024-03-08T06:14:22;3.70;99.90
74901;DHT22;63461;51.416;6.758;2024-03-08T06:16:48;3.70;99.90
74901;DHT22;63461;51.416;6.758;2024-03-08T06:19:17;3.70;99.90
74901;DHT22;63461;51.416;6.758;2024-03-08T06:21:43;3.70;99.90
74901;DHT22;63461;51.416;6.758;2024-03-08T06:24:09;3.90;99.90
74901;DHT22;63461;51.416;6.758;2024-03-08T06:26:34;3.80;99.90
74901;DHT22;63461;51.416;6.758;2024-03-08T06:29:00;3.80;99.90
74901;DHT22;63461;51.416;6.758;2024-03-08T06:31:26;3.80;99.90
74901;DHT22;63461;51.416;6.758;2024-03-08T06:33:52;3.80;99.90
74901;DHT22;63461;51.416;6.758;2024-03-08T06:36:20;3.70;99.90
74901;DHT22;63461;51.416;6.758;2024-03-08T06:38:48;3.80;99.90
74901;DHT22;63461;51.416;6.758;2024-03-08T06:41:14;3.80;99.90
74901;DHT22;63461;51.416;6.758;2024-03-08T06:43:44;3.90;99.90
74901;DHT22;63461;51.416;6.758;2024-03-08T06:46:10;3.80;99.90
74901;DHT22;63461;51.416;6.758;2024-03-08T06:48:40;3.80;99.90
74901;DHT22;63461;51.416;6.758;2024-03-08T06:51:05;3.80;99.90
74901;DHT22;63461;51.416;6.758;2024-03-08T06:53:32;3.90;99.90
74901;DHT22;63461;51.416;6.758;2024-03-08T06:56:00;4.00;99.90
74901;DHT22;63461;51.416;6.758;2024-03-08T06:58:26;3.90;99.90
74901;DHT22;63461;51.416;6.758;2024-03-08T07:00:53;3.90;99.90
74901;DHT22;63461;51.416;6.758;2024-03-08T07:03:19;4.00;99.90
74901;DHT22;63461;51.416;6.758;2024-03-08T07:05:45;4.00;99.90
74901;DHT22;63461;51.416;6.758;2024-03-08T07:08:11;4.00;99.90
74901;DHT22;63461;51.416;6.758;2024-03-08T07:10:41;4.00;99.90
74901;DHT22;63461;51.416;6.758;2024-03-08T07:13:11;4.00;99.90
74901;DHT22;63461;51.416;6.758;2024-03-08T07:15:36;4.10;99.90
74901;DHT22;63461;51.416;6.758;2024-03-08T07:18:03;4.10;99.90
74901;DHT22;63461;51.416;6.758;2024-03-08T07:20:28;4.10;99.90
74901;DHT22;63461;51.416;6.758;2024-03-08T07:22:54;4.20;99.90
74901;DHT22;63461;51.416;6.758;2024-03-08T07:25:20;4.20;99.90
74901;DHT22;63461;51.416;6.758;2024-03-08T07:27:52;4.20;99.90
74901;DHT22;63461;51.416;6.758;2024-03-08T07:30:19;4.20;99.90
74901;DHT22;63461;51.416;6.758;2024-03-08T07:33:04;4.30;99.90
74901;DHT22;63461;51.416;6.758;2024-03-08T07:35:30;4.30;99.90
74901;DHT22;63461;51.416;6.758;2024-03-08T07:37:56;4.30;99.90
74901;DHT22;63461;51.416;6.758;2024-03-08T07:40:23;4.30;99.90
74901;DHT22;63461;51.416;6.758;2024-03-08T07:42:49;4.30;99.90
74901;DHT22;63461;51.416;6.758;2024-03-08T07:45:16;4.40;99.90
74901;DHT22;63461;51.416;6.758;2024-03-08T07:47:42;4.40;99.90
74901;DHT22;63461;51.416;6.758;2024-03-08T07:50:08;4.50;99.90
74901;DHT22;63461;51.416;6.758;2024-03-08T07:52:35;4.50;99.90
74901;DHT22;63461;51.416;6.758;2024-03-08T07:55:02;4.60;99.90
74901;DHT22;63461;51.416;6.758;2024-03-08T07:57:29;4.60;99.90
74901;DHT22;63461;51.416;6.758;2024-03-08T07:59:55;4.70;99.90
74901;DHT22;63461;51.416;6.758;2024-03-08T08:02:21;4.70;99.90
74901;DHT22;63461;51.416;6.758;2024-03-08T08:04:47;4.70;99.90
74901;DHT22;63461;51.416;6.758;2024-03-08T08:07:13;4.80;99.90
74901;DHT22;63461;51.416;6.758;2024-03-08T08:09:40;4.90;99.90
74901;DHT22;63461;51.416;6.758;2024-03-08T08:12:11;4.90;99.90
74901;DHT22;63461;51.416;6.758;2024-03-08T08:14:41;5.00;99.90
74901;DHT22;63461;51.416;6.758;2024-03-08T08:17:07;5.00;99.90
74901;DHT22;63461;51.416;6.758;2024-03-08T08:19:34;5.00;99.90
74901;DHT22;63461;51.416;6.758;2024-03-08T08:22:01;5.10;99.90
74901;DHT22;63461;51.416;6.758;2024-03-08T08:24:28;5.10;99.90
74901;DHT22;63461;51.416;6.758;2024-03-08T08:26:54;5.10;99.90
74901;DHT22;63461;51.416;6.758;2024-03-08T08:29:19;5.20;99.90
74901;DHT22;63461;51.416;6.758;2024-03-08T08:31:46;5.30;99.90
74901;DHT22;63461;51.416;6.758;2024-03-08T08:34:12;5.30;99.90
74901;DHT22;63461;51.416;6.758;2024-03-08T08:36:39;5.30;99.90
74901;DHT22;63461;51.416;6.758;2024-03-08T08:39:05;5.40;99.90
74901;DHT22;63461;51.416;6.758;2024-03-08T08:41:38;5.50;99.90
74901;DHT22;63461;51.416;6.758;2024-03-08T08:44:03;5.50;99.90
74901;DHT22;63461;51.416;6.758;2024-03-08T08:46:29;5.60;99.90
74901;DHT22;63461;51.416;6.758;2024-03-08T08:48:55;5.70;99.90
74901;DHT22;63461;51.416;6.758;2024-03-08T08:51:24;5.80;99.90
74901;DHT22;63461;51.416;6.758;2024-03-08T08:53:53;5.80;99.90
74901;DHT22;63461;51.416;6.758;2024-03-08T08:56:19;5.90;99.90
74901;DHT22;63461;51.416;6.758;2024-03-08T08:58:45;5.90;99.90
74901;DHT22;63461;51.416;6.758;2024-03-08T09:01:11;6.00;99.90
74901;DHT22;63461;51.416;6.758;2024-03-08T09:03:37;6.00;99.90
74901;DHT22;63461;51.416;6.758;2024-03-08T09:06:04;6.00;99.90
74901;DHT22;63461;51.416;6.758;2024-03-08T09:08:30;6.10;99.90
74901;DHT22;63461;51.416;6.758;2024-03-08T09:10:56;6.10;99.90
74901;DHT22;63461;51.416;6.758;2024-03-08T09:13:22;6.20;99.90
74901;DHT22;63461;51.416;6.758;2024-03-08T09:15:48;6.20;99.90
74901;DHT22;63461;51.416;6.758;2024-03-08T09:18:14;6.20;99.90
74901;DHT22;63461;51.416;6.758;2024-03-08T09:20:40;6.30;99.90
74901;DHT22;63461;51.416;6.758;2024-03-08T09:23:06;6.30;99.90
74901;DHT22;63461;51.416;6.758;2024-03-08T09:25:34;6.30;99.90
74901;DHT22;63461;51.416;6.758;2024-03-08T09:27:59;6.40;99.90
74901;DHT22;63461;51.416;6.758;2024-03-08T09:30:25;6.40;99.90
74901;DHT22;63461;51.416;6.758;2024-03-08T09:32:51;6.40;99.90
74901;DHT22;63461;51.416;6.758;2024-03-08T09:35:17;6.50;99.90
74901;DHT22;63461;51.416;6.758;2024-03-08T09:37:43;6.50;99.90
74901;DHT22;63461;51.416;6.758;2024-03-08T09:40:09;6.50;99.90
74901;DHT22;63461;51.416;6.758;2024-03-08T09:42:37;6.60;99.90
74901;DHT22;63461;51.416;6.758;2024-03-08T09:45:09;6.60;99.90
74901;DHT22;63461;51.416;6.758;2024-03-08T09:47:39;6.60;99.90
74901;DHT22;63461;51.416;6.758;2024-03-08T09:50:07;6.70;99.90
74901;DHT22;63461;51.416;6.758;2024-03-08T09:52:40;6.70;99.90
74901;DHT22;63461;51.416;6.758;2024-03-08T09:55:07;6.70;99.90
74901;DHT22;63461;51.416;6.758;2024-03-08T09:57:33;6.80;99.90
74901;DHT22;63461;51.416;6.758;2024-03-08T10:00:01;6.80;99.90
74901;DHT22;63461;51.416;6.758;2024-03-08T10:02:30;6.80;99.90
74901;DHT22;63461;51.416;6.758;2024-03-08T10:04:57;6.90;99.90
74901;DHT22;63461;51.416;6.758;2024-03-08T10:07:23;7.00;99.90
74901;DHT22;63461;51.416;6.758;2024-03-08T10:09:52;7.00;99.90
74901;DHT22;63461;51.416;6.758;2024-03-08T10:12:17;7.00;99.90
74901;DHT22;63461;51.416;6.758;2024-03-08T10:14:45;7.10;99.90
74901;DHT22;63461;51.416;6.758;2024-03-08T10:17:12;7.10;99.90
74901;DHT22;63461;51.416;6.758;2024-03-08T10:19:38;7.10;99.90
74901;DHT22;63461;51.416;6.758;2024-03-08T10:22:05;7.20;99.90
74901;DHT22;63461;51.416;6.758;2024-03-08T10:24:31;7.20;99.90
74901;DHT22;63461;51.416;6.758;2024-03-08T10:27:02;7.30;99.90
74901;DHT22;63461;51.416;6.758;2024-03-08T10:29:33;7.30;99.90
74901;DHT22;63461;51.416;6.758;2024-03-08T10:31:59;7.40;99.90
74901;DHT22;63461;51.416;6.758;2024-03-08T10:34:25;7.40;99.90
74901;DHT22;63461;51.416;6.758;2024-03-08T10:36:51;7.40;99.90
74901;DHT22;63461;51.416;6.758;2024-03-08T10:39:25;7.40;99.90
74901;DHT22;63461;51.416;6.758;2024-03-08T10:41:58;7.50;99.90
74901;DHT22;63461;51.416;6.758;2024-03-08T10:49:26;7.60;99.90
74901;DHT22;63461;51.416;6.758;2024-03-08T10:51:57;7.70;99.90
74901;DHT22;63461;51.416;6.758;2024-03-08T10:54:25;7.70;99.90
74901;DHT22;63461;51.416;6.758;2024-03-08T10:56:52;7.80;99.90
74901;DHT22;63461;51.416;6.758;2024-03-08T10:59:19;7.90;99.90
74901;DHT22;63461;51.416;6.758;2024-03-08T11:01:45;8.00;99.90
74901;DHT22;63461;51.416;6.758;2024-03-08T11:04:12;8.00;99.90
74901;DHT22;63461;51.416;6.758;2024-03-08T11:09:08;8.20;99.90
74901;DHT22;63461;51.416;6.758;2024-03-08T11:11:42;8.20;99.90
74901;DHT22;63461;51.416;6.758;2024-03-08T11:14:42;8.30;99.90
74901;DHT22;63461;51.416;6.758;2024-03-08T11:17:08;8.30;99.90
74901;DHT22;63461;51.416;6.758;2024-03-08T11:19:34;8.20;99.90
74901;DHT22;63461;51.416;6.758;2024-03-08T11:22:03;8.20;99.90
74901;DHT22;63461;51.416;6.758;2024-03-08T11:24:37;8.30;99.90
74901;DHT22;63461;51.416;6.758;2024-03-08T11:27:06;8.20;99.90
74901;DHT22;63461;51.416;6.758;2024-03-08T11:29:36;8.30;99.90
74901;DHT22;63461;51.416;6.758;2024-03-08T11:34:42;8.40;99.90
74901;DHT22;63461;51.416;6.758;2024-03-08T11:37:15;8.40;99.90
74901;DHT22;63461;51.416;6.758;2024-03-08T11:39:54;8.50;99.90
74901;DHT22;63461;51.416;6.758;2024-03-08T11:42:25;8.50;99.90
74901;DHT22;63461;51.416;6.758;2024-03-08T11:44:52;8.60;99.90
74901;DHT22;63461;51.416;6.758;2024-03-08T11:47:19;8.50;99.90
74901;DHT22;63461;51.416;6.758;2024-03-08T11:49:45;8.60;99.90
74901;DHT22;63461;51.416;6.758;2024-03-08T11:52:14;8.70;99.90
74901;DHT22;63461;51.416;6.758;2024-03-08T11:54:41;8.70;99.90
74901;DHT22;63461;51.416;6.758;2024-03-08T11:57:09;8.70;99.90
74901;DHT22;63461;51.416;6.758;2024-03-08T11:59:37;8.70;99.90
74901;DHT22;63461;51.416;6.758;2024-03-08T12:02:05;8.70;99.90
74901;DHT22;63461;51.416;6.758;2024-03-08T12:04:31;8.70;99.90
74901;DHT22;63461;51.416;6.758;2024-03-08T12:07:01;8.80;99.90
74901;DHT22;63461;51.416;6.758;2024-03-08T12:09:28;8.80;99.90
74901;DHT22;63461;51.416;6.758;2024-03-08T12:11:54;8.80;99.90
74901;DHT22;63461;51.416;6.758;2024-03-08T12:14:20;8.70;99.90
74901;DHT22;63461;51.416;6.758;2024-03-08T12:16:46;8.90;99.90
74901;DHT22;63461;51.416;6.758;2024-03-08T12:19:14;8.90;99.90
74901;DHT22;63461;51.416;6.758;2024-03-08T12:21:42;8.90;99.90
74901;DHT22;63461;51.416;6.758;2024-03-08T12:24:16;9.00;99.90
74901;DHT22;63461;51.416;6.758;2024-03-08T12:26:46;9.00;99.90
74901;DHT22;63461;51.416;6.758;2024-03-08T12:29:27;8.90;99.90
74901;DHT22;63461;51.416;6.758;2024-03-08T12:31:55;8.90;99.90
74901;DHT22;63461;51.416;6.758;2024-03-08T12:34:24;9.00;99.90
74901;DHT22;63461;51.416;6.758;2024-03-08T12:36:51;9.00;99.90
74901;DHT22;63461;51.416;6.758;2024-03-08T12:39:21;9.10;99.90
74901;DHT22;63461;51.416;6.758;2024-03-08T12:41:56;9.10;99.90
74901;DHT22;63461;51.416;6.758;2024-03-08T12:44:27;9.10;99.90
74901;DHT22;63461;51.416;6.758;2024-03-08T12:46:54;9.20;99.90
74901;DHT22;63461;51.416;6.758;2024-03-08T12:49:20;9.20;99.90
74901;DHT22;63461;51.416;6.758;2024-03-08T12:51:49;9.30;99.90
74901;DHT22;63461;51.416;6.758;2024-03-08T12:54:15;9.30;99.90
74901;DHT22;63461;51.416;6.758;2024-03-08T12:56:40;9.30;99.90
74901;DHT22;63461;51.416;6.758;2024-03-08T12:59:07;9.30;99.90
74901;DHT22;63461;51.416;6.758;2024-03-08T13:01:34;9.30;99.90
74901;DHT22;63461;51.416;6.758;2024-03-08T13:04:03;9.40;99.90
74901;DHT22;63461;51.416;6.758;2024-03-08T13:06:31;9.40;99.90
74901;DHT22;63461;51.416;6.758;2024-03-08T13:09:01;9.40;99.90
74901;DHT22;63461;51.416;6.758;2024-03-08T13:11:31;9.50;99.90
74901;DHT22;63461;51.416;6.758;2024-03-08T13:14:03;9.60;99.90
74901;DHT22;63461;51.416;6.758;2024-03-08T13:16:29;9.60;99.90
74901;DHT22;63461;51.416;6.758;2024-03-08T13:18:55;9.60;99.90
74901;DHT22;63461;51.416;6.758;2024-03-08T13:21:23;9.70;99.90
74901;DHT22;63461;51.416;6.758;2024-03-08T13:23:49;9.70;99.90
74901;DHT22;63461;51.416;6.758;2024-03-08T13:26:16;9.70;99.90
74901;DHT22;63461;51.416;6.758;2024-03-08T13:28:45;9.80;99.90
74901;DHT22;63461;51.416;6.758;2024-03-08T13:31:11;9.80;99.90
74901;DHT22;63461;51.416;6.758;2024-03-08T13:33:38;9.80;99.90
74901;DHT22;63461;51.416;6.758;2024-03-08T13:36:10;9.80;99.90
74901;DHT22;63461;51.416;6.758;2024-03-08T13:38:48;9.90;99.90
74901;DHT22;63461;51.416;6.758;2024-03-08T13:41:15;9.90;99.90
74901;DHT22;63461;51.416;6.758;2024-03-08T13:43:43;9.90;99.90
74901;DHT22;63461;51.416;6.758;2024-03-08T13:46:10;9.90;99.90
74901;DHT22;63461;51.416;6.758;2024-03-08T13:48:39;9.90;99.90
74901;DHT22;63461;51.416;6.758;2024-03-08T13:51:07;10.00;99.90
74901;DHT22;63461;51.416;6.758;2024-03-08T13:53:33;10.00;99.90
74901;DHT22;63461;51.416;6.758;2024-03-08T13:56:02;10.20;99.90
74901;DHT22;63461;51.416;6.758;2024-03-08T13:58:28;10.10;99.90
74901;DHT22;63461;51.416;6.758;2024-03-08T14:00:57;10.10;99.90
74901;DHT22;63461;51.416;6.758;2024-03-08T14:03:23;10.10;99.90
74901;DHT22;63461;51.416;6.758;2024-03-08T14:05:50;10.10;99.90
74901;DHT22;63461;51.416;6.758;2024-03-08T14:08:16;10.10;99.90
74901;DHT22;63461;51.416;6.758;2024-03-08T14:10:43;10.10;99.90
74901;DHT22;63461;51.416;6.758;2024-03-08T14:13:12;10.10;99.90
74901;DHT22;63461;51.416;6.758;2024-03-08T14:15:39;10.20;99.90
74901;DHT22;63461;51.416;6.758;2024-03-08T14:18:08;10.10;99.90
74901;DHT22;63461;51.416;6.758;2024-03-08T14:20:33;10.20;99.90
74901;DHT22;63461;51.416;6.758;2024-03-08T14:22:59;10.20;99.90
74901;DHT22;63461;51.416;6.758;2024-03-08T14:25:25;10.20;99.90
74901;DHT22;63461;51.416;6.758;2024-03-08T14:27:54;10.30;99.90
74901;DHT22;63461;51.416;6.758;2024-03-08T14:30:24;10.20;99.90
74901;DHT22;63461;51.416;6.758;2024-03-08T14:33:05;10.20;99.90
74901;DHT22;63461;51.416;6.758;2024-03-08T14:35:31;10.20;99.90
74901;DHT22;63461;51.416;6.758;2024-03-08T14:37:58;10.30;99.90
74901;DHT22;63461;51.416;6.758;2024-03-08T14:40:27;10.30;99.90
74901;DHT22;63461;51.416;6.758;2024-03-08T14:42:52;10.30;99.90
74901;DHT22;63461;51.416;6.758;2024-03-08T14:45:19;10.30;99.90
74901;DHT22;63461;51.416;6.758;2024-03-08T14:47:57;10.30;99.90
74901;DHT22;63461;51.416;6.758;2024-03-08T14:50:24;10.30;99.90
74901;DHT22;63461;51.416;6.758;2024-03-08T14:52:53;10.30;99.90
74901;DHT22;63461;51.416;6.758;2024-03-08T14:55:20;10.30;99.90
74901;DHT22;63461;51.416;6.758;2024-03-08T14:57:48;10.20;99.90
74901;DHT22;63461;51.416;6.758;2024-03-08T15:00:34;10.30;99.90
74901;DHT22;63461;51.416;6.758;2024-03-08T15:03:03;10.20;99.90
74901;DHT22;63461;51.416;6.758;2024-03-08T15:05:35;10.30;99.90
74901;DHT22;63461;51.416;6.758;2024-03-08T15:08:10;10.30;99.90
74901;DHT22;63461;51.416;6.758;2024-03-08T15:10:56;10.30;99.90
74901;DHT22;63461;51.416;6.758;2024-03-08T15:13:24;10.30;99.90
74901;DHT22;63461;51.416;6.758;2024-03-08T15:16:08;10.30;99.90
74901;DHT22;63461;51.416;6.758;2024-03-08T15:18:37;10.30;99.90
74901;DHT22;63461;51.416;6.758;2024-03-08T15:21:04;10.20;99.90
74901;DHT22;63461;51.416;6.758;2024-03-08T15:23:34;10.20;99.90
74901;DHT22;63461;51.416;6.758;2024-03-08T15:26:01;10.30;99.90
74901;DHT22;63461;51.416;6.758;2024-03-08T15:28:33;10.30;99.90
74901;DHT22;63461;51.416;6.758;2024-03-08T15:31:19;10.30;99.90
74901;DHT22;63461;51.416;6.758;2024-03-08T15:33:54;10.20;99.90
74901;DHT22;63461;51.416;6.758;2024-03-08T15:36:29;10.30;99.90
74901;DHT22;63461;51.416;6.758;2024-03-08T15:38:59;10.20;99.90
74901;DHT22;63461;51.416;6.758;2024-03-08T15:41:25;10.30;99.90
74901;DHT22;63461;51.416;6.758;2024-03-08T15:43:52;10.30;99.90
74901;DHT22;63461;51.416;6.758;2024-03-08T15:46:20;10.20;99.90
74901;DHT22;63461;51.416;6.758;2024-03-08T15:48:48;10.20;99.90
74901;DHT22;63461;51.416;6.758;2024-03-08T15:51:15;10.20;99.90
74901;DHT22;63461;51.416;6.758;2024-03-08T15:53:46;10.20;99.90
74901;DHT22;63461;51.416;6.758;2024-03-08T15:56:21;10.20;99.90